createdAt,value
2018-06-19T00:01:52.450Z,15.55
2018-06-19T00:04:20.404Z,15.65
2018-06-19T00:06:48.496Z,15.67
2018-06-19T00:09:16.477Z,15.64
2018-06-19T00:11:44.446Z,15.61
2018-06-19T00:14:12.429Z,15.62
2018-06-19T00:16:40.488Z,15.66
2018-06-19T00:19:08.838Z,15.59
2018-06-19T00:21:40.806Z,15.54
2018-06-19T00:24:08.782Z,15.48
2018-06-19T00:26:36.777Z,15.48
2018-06-19T00:29:04.846Z,15.59
2018-06-19T00:31:32.852Z,15.68
2018-06-19T00:34:00.807Z,15.75
2018-06-19T00:36:28.916Z,15.68
2018-06-19T00:38:56.868Z,15.66
2018-06-19T00:41:24.888Z,15.79
2018-06-19T00:43:53.350Z,15.73
2018-06-19T00:46:23.655Z,15.58
2018-06-19T00:48:51.636Z,15.55
2018-06-19T00:51:19.634Z,15.64
2018-06-19T00:53:47.594Z,15.52
2018-06-19T00:56:26.793Z,15.46
2018-06-19T00:58:54.732Z,15.24
2018-06-19T01:01:22.685Z,15.34
2018-06-19T01:03:50.732Z,15.35
2018-06-19T01:06:18.680Z,15.46
2018-06-19T01:08:46.689Z,15.51
2018-06-19T01:11:14.667Z,15.47
2018-06-19T01:13:42.652Z,15.51
2018-06-19T01:16:10.628Z,15.56
2018-06-19T01:18:38.606Z,15.50
2018-06-19T01:21:06.623Z,15.64
2018-06-19T01:23:34.550Z,15.58
2018-06-19T01:26:02.602Z,15.58
2018-06-19T01:28:30.594Z,15.64
2018-06-19T01:30:58.521Z,15.55
2018-06-19T01:33:31.527Z,15.61
2018-06-19T01:35:59.464Z,15.63
2018-06-19T01:38:27.394Z,15.62
2018-06-19T01:40:55.366Z,15.53
2018-06-19T01:43:23.296Z,15.50
2018-06-19T01:45:51.229Z,15.59
2018-06-19T01:48:19.243Z,15.67
2018-06-19T01:50:47.183Z,15.68
2018-06-19T01:53:15.171Z,15.65
2018-06-19T01:55:43.157Z,15.52
2018-06-19T01:58:11.106Z,15.52
2018-06-19T02:00:39.050Z,15.46
2018-06-19T02:03:07.038Z,15.49
2018-06-19T02:05:35.068Z,15.54
2018-06-19T02:08:03.048Z,15.50
2018-06-19T02:10:37.622Z,15.42
2018-06-19T02:13:05.582Z,15.58
2018-06-19T02:15:33.547Z,15.47
2018-06-19T02:18:01.659Z,15.48
2018-06-19T02:20:29.687Z,15.45
2018-06-19T02:22:57.639Z,15.44
2018-06-19T02:26:50.101Z,15.32
2018-06-19T02:29:18.067Z,15.08
2018-06-19T02:31:46.035Z,14.84
2018-06-19T02:34:14.040Z,14.81
2018-06-19T02:36:41.987Z,14.98
2018-06-19T02:39:11.382Z,14.88
2018-06-19T02:41:39.546Z,14.83
2018-06-19T02:44:07.633Z,14.89
2018-06-19T02:46:35.613Z,14.80
2018-06-19T02:49:04.047Z,14.73
2018-06-19T02:51:32.002Z,14.57
2018-06-19T02:54:00.157Z,14.69
2018-06-19T02:56:28.162Z,14.89
2018-06-19T02:58:56.167Z,14.95
2018-06-19T03:01:24.092Z,15.01
2018-06-19T03:03:52.156Z,15.09
2018-06-19T03:06:20.112Z,15.19
2018-06-19T03:08:48.124Z,14.88
2018-06-19T03:11:16.222Z,15.00
2018-06-19T03:13:44.164Z,14.97
2018-06-19T03:16:12.139Z,15.14
2018-06-19T03:18:40.137Z,14.97
2018-06-19T03:21:08.087Z,14.85
2018-06-19T03:23:36.032Z,14.97
2018-06-19T03:26:04.067Z,14.92
2018-06-19T03:28:32.020Z,14.87
2018-06-19T03:30:59.995Z,15.05
2018-06-19T03:33:28.018Z,15.15
2018-06-19T03:35:55.983Z,15.22
2018-06-19T03:38:23.907Z,15.13
2018-06-19T03:40:52.167Z,15.19
2018-06-19T03:43:20.062Z,15.17
2018-06-19T03:45:47.984Z,14.92
2018-06-19T04:02:56.963Z,15.19
2018-06-19T04:05:24.889Z,15.33
2018-06-19T04:07:52.797Z,15.42
2018-06-19T04:10:20.793Z,15.24
2018-06-19T04:12:48.766Z,15.27
2018-06-19T04:15:16.813Z,15.42
2018-06-19T04:17:44.784Z,15.41
2018-06-19T04:20:13.204Z,15.39
2018-06-19T04:22:41.120Z,15.50
2018-06-19T04:25:09.119Z,15.45
2018-06-19T04:27:37.028Z,15.01
2018-06-19T04:30:05.194Z,14.98
2018-06-19T04:32:33.414Z,14.82
2018-06-19T04:35:01.344Z,14.97
2018-06-19T04:37:29.256Z,15.09
2018-06-19T04:39:57.235Z,15.22
2018-06-19T04:42:25.857Z,15.37
2018-06-19T04:44:53.880Z,15.46
2018-06-19T04:47:21.880Z,15.56
2018-06-19T04:49:49.853Z,15.76
2018-06-19T04:52:17.746Z,15.70
2018-06-19T04:54:45.708Z,15.63
2018-06-19T04:57:13.636Z,15.63
2018-06-19T04:59:41.569Z,15.65
2018-06-19T05:02:09.519Z,15.72
2018-06-19T05:04:37.421Z,15.90
2018-06-19T05:07:05.400Z,15.93
2018-06-19T05:09:33.416Z,16.06
2018-06-19T05:12:01.344Z,16.07
2018-06-19T05:14:37.609Z,16.03
2018-06-19T05:17:05.611Z,15.96
2018-06-19T05:19:33.522Z,16.01
2018-06-19T05:22:01.495Z,16.00
2018-06-19T05:24:29.410Z,15.90
2018-06-19T05:26:57.326Z,15.92
2018-06-19T05:29:25.436Z,15.96
2018-06-19T05:31:53.357Z,15.69
2018-06-19T05:34:21.634Z,15.58
2018-06-19T05:36:49.628Z,15.59
2018-06-19T05:39:17.549Z,15.64
2018-06-19T05:41:45.477Z,15.61
2018-06-19T05:44:13.438Z,15.38
2018-06-19T05:46:41.355Z,15.21
2018-06-19T05:49:09.298Z,15.19
2018-06-19T05:51:37.300Z,15.39
2018-06-19T05:54:05.231Z,15.42
2018-06-19T05:56:33.341Z,15.51
2018-06-19T05:59:01.292Z,15.64
2018-06-19T06:01:29.207Z,15.64
2018-06-19T06:03:57.106Z,15.67
2018-06-19T06:06:25.055Z,15.62
2018-06-19T06:08:52.999Z,15.52
2018-06-19T06:11:20.911Z,15.60
2018-06-19T06:13:48.926Z,15.75
2018-06-19T06:16:16.932Z,15.67
2018-06-19T06:18:44.857Z,15.84
2018-06-19T06:21:12.826Z,16.06
2018-06-19T06:23:40.839Z,16.25
2018-06-19T06:26:08.763Z,16.30
2018-06-19T06:28:36.740Z,16.40
2018-06-19T06:31:04.987Z,16.42
2018-06-19T06:33:32.895Z,16.62
2018-06-19T06:36:00.991Z,16.72
2018-06-19T06:38:28.916Z,16.79
2018-06-19T06:40:56.852Z,16.97
2018-06-19T06:43:24.811Z,16.97
2018-06-19T06:45:52.737Z,16.97
2018-06-19T06:48:20.660Z,16.92
2018-06-19T06:50:48.621Z,17.04
2018-06-19T06:53:16.550Z,17.17
2018-06-19T06:55:44.599Z,17.37
2018-06-19T06:58:12.867Z,17.43
2018-06-19T07:00:40.796Z,17.55
2018-06-19T07:03:08.735Z,17.65
2018-06-19T07:05:36.770Z,17.71
2018-06-19T07:08:04.690Z,17.76
2018-06-19T07:10:32.617Z,17.75
2018-06-19T07:13:00.584Z,17.92
2018-06-19T07:15:28.510Z,18.19
2018-06-19T07:17:56.631Z,18.05
2018-06-19T07:20:28.099Z,18.28
2018-06-19T07:22:56.044Z,18.37
2018-06-19T07:25:23.975Z,18.58
2018-06-19T07:27:51.993Z,18.71
2018-06-19T07:30:19.925Z,18.80
2018-06-19T07:32:47.874Z,19.06
2018-06-19T07:35:15.831Z,19.49
2018-06-19T07:37:43.795Z,20.09
2018-06-19T07:40:11.739Z,20.63
2018-06-19T07:42:39.780Z,20.77
2018-06-19T07:45:07.721Z,20.91
2018-06-19T07:47:35.704Z,20.64
2018-06-19T07:50:03.996Z,20.22
2018-06-19T07:52:32.127Z,20.90
2018-06-19T07:55:00.064Z,21.04
2018-06-19T07:57:28.021Z,21.56
2018-06-19T07:59:55.946Z,21.74
2018-06-19T08:02:23.886Z,21.48
2018-06-19T08:04:51.902Z,21.85
2018-06-19T08:07:19.826Z,21.87
2018-06-19T08:09:47.757Z,22.02
2018-06-19T08:12:15.765Z,22.59
2018-06-19T08:14:43.686Z,22.74
2018-06-19T08:17:11.626Z,23.04
2018-06-19T08:19:39.674Z,23.36
2018-06-19T08:22:07.596Z,23.65
2018-06-19T08:24:35.525Z,23.48
2018-06-19T08:27:03.552Z,23.65
2018-06-19T08:29:31.471Z,23.74
2018-06-19T08:31:59.375Z,23.47
2018-06-19T08:34:27.323Z,24.01
2018-06-19T08:36:55.276Z,24.64
2018-06-19T08:39:23.195Z,24.76
2018-06-19T08:41:51.170Z,24.91
2018-06-19T08:44:19.099Z,24.74
2018-06-19T08:46:47.049Z,24.95
2018-06-19T08:49:15.053Z,24.07
2018-06-19T08:51:43.103Z,23.81
2018-06-19T08:54:11.017Z,23.87
2018-06-19T08:56:38.959Z,24.62
2018-06-19T08:59:06.884Z,24.87
2018-06-19T09:01:34.805Z,25.19
2018-06-19T09:04:03.199Z,25.32
2018-06-19T09:06:31.216Z,25.39
2018-06-19T09:08:59.127Z,26.04
2018-06-19T09:11:27.128Z,26.11
2018-06-19T09:13:55.052Z,26.21
2018-06-19T09:16:22.967Z,25.73
2018-06-19T09:18:50.927Z,26.02
2018-06-19T09:21:19.032Z,25.87
2018-06-19T09:23:48.604Z,25.64
2018-06-19T09:26:16.582Z,26.52
2018-06-19T09:28:44.507Z,25.61
2018-06-19T09:31:12.444Z,25.51
2018-06-19T09:33:40.516Z,25.57
2018-06-19T09:36:08.470Z,25.74
2018-06-19T09:38:36.400Z,26.32
2018-06-19T09:41:04.452Z,26.96
2018-06-19T09:43:32.567Z,26.61
2018-06-19T09:46:00.656Z,26.43
2018-06-19T09:48:28.724Z,26.43
2018-06-19T09:50:56.684Z,26.51
2018-06-19T09:53:24.611Z,26.19
2018-06-19T09:55:53.003Z,26.59
2018-06-19T09:58:21.204Z,27.17
2018-06-19T10:00:49.331Z,27.36
2018-06-19T10:03:17.546Z,26.71
2018-06-19T10:07:09.976Z,26.48
2018-06-19T10:09:37.965Z,26.89
2018-06-19T10:12:06.065Z,26.17
2018-06-19T10:14:34.474Z,25.82
2018-06-19T10:17:02.538Z,25.80
2018-06-19T10:19:30.485Z,25.96
2018-06-19T10:21:58.554Z,26.53
2018-06-19T10:24:27.591Z,26.84
2018-06-19T10:26:55.665Z,27.35
2018-06-19T10:29:23.606Z,27.53
2018-06-19T10:31:51.604Z,27.72
2018-06-19T10:34:19.529Z,27.97
2018-06-19T10:36:47.485Z,27.84
2018-06-19T10:39:15.520Z,27.67
2018-06-19T10:41:43.584Z,27.71
2018-06-19T10:44:11.547Z,27.61
2018-06-19T10:46:39.521Z,27.47
2018-06-19T10:49:07.434Z,27.22
2018-06-19T10:51:35.373Z,27.10
2018-06-19T10:54:03.423Z,27.58
2018-06-19T10:56:31.416Z,27.76
2018-06-19T10:58:59.391Z,27.91
2018-06-19T11:01:27.473Z,27.62
2018-06-19T11:03:55.390Z,27.34
2018-06-19T11:06:23.326Z,27.75
2018-06-19T11:08:51.479Z,27.78
2018-06-19T11:11:19.452Z,27.58
2018-06-19T11:13:47.377Z,26.82
2018-06-19T11:16:15.378Z,26.68
2018-06-19T11:18:43.355Z,27.00
2018-06-19T11:21:11.280Z,27.09
2018-06-19T11:23:40.156Z,26.86
2018-06-19T11:26:08.131Z,27.36
2018-06-19T11:28:36.088Z,27.67
2018-06-19T11:31:04.108Z,28.12
2018-06-19T11:33:32.023Z,28.76
2018-06-19T11:36:00.092Z,28.77
2018-06-19T11:38:28.105Z,28.34
2018-06-19T11:40:56.092Z,27.82
2018-06-19T11:43:24.064Z,27.41
2018-06-19T11:45:52.124Z,27.76
2018-06-19T11:48:20.084Z,28.20
2018-06-19T11:50:48.040Z,28.35
2018-06-19T11:53:16.016Z,28.88
2018-06-19T11:55:43.936Z,28.92
2018-06-19T11:58:11.855Z,29.33
2018-06-19T12:00:39.825Z,29.06
2018-06-19T12:03:07.811Z,29.32
2018-06-19T12:05:37.223Z,29.94
2018-06-19T12:08:05.621Z,29.63
2018-06-19T12:10:33.555Z,29.21
2018-06-19T12:13:01.480Z,28.66
2018-06-19T12:15:34.528Z,29.07
2018-06-19T12:18:02.507Z,29.37
2018-06-19T12:20:30.474Z,27.72
2018-06-19T12:22:58.534Z,27.32
2018-06-19T12:25:26.622Z,27.26
2018-06-19T12:27:54.563Z,27.37
2018-06-19T12:30:22.556Z,27.32
2018-06-19T12:32:50.495Z,27.25
2018-06-19T12:35:18.426Z,27.14
2018-06-19T12:37:46.400Z,27.82
2018-06-19T12:40:14.351Z,28.93
2018-06-19T12:42:42.289Z,29.27
2018-06-19T12:45:10.251Z,28.88
2018-06-19T12:47:37.786Z,28.68
2018-06-19T12:50:46.807Z,28.41
2018-06-19T12:53:25.739Z,27.08
2018-06-19T12:56:04.770Z,26.02
2018-06-19T12:58:32.696Z,25.51
2018-06-19T13:01:00.630Z,25.33
2018-06-19T13:03:39.578Z,25.35
2018-06-19T13:06:18.580Z,25.55
2018-06-19T13:08:46.587Z,25.75
2018-06-19T13:11:14.576Z,25.82
2018-06-19T13:13:53.481Z,25.64
2018-06-19T13:16:32.284Z,24.91
2018-06-19T13:19:11.184Z,24.58
2018-06-19T13:21:39.106Z,24.15
2018-06-19T13:24:07.014Z,24.14
2018-06-19T13:26:35.167Z,23.96
2018-06-19T13:29:42.463Z,23.86
2018-06-19T13:32:11.515Z,23.68
2018-06-19T13:34:39.591Z,23.80
2018-06-19T13:37:07.548Z,23.79
2018-06-19T13:39:37.987Z,23.69
2018-06-19T13:42:18.803Z,23.80
2018-06-19T13:45:04.972Z,23.39
2018-06-19T13:47:33.764Z,23.39
2018-06-19T13:50:01.698Z,23.54
2018-06-19T13:52:29.828Z,23.67
2018-06-19T13:56:12.665Z,23.49
2018-06-19T13:58:40.660Z,23.79
2018-06-19T14:01:09.005Z,24.23
2018-06-19T14:03:37.186Z,25.19
2018-06-19T14:06:05.257Z,26.16
2018-06-19T14:09:16.964Z,27.02
2018-06-19T14:12:01.562Z,27.95
2018-06-19T14:14:29.488Z,27.88
2018-06-19T14:16:57.428Z,27.60
2018-06-19T14:19:25.430Z,27.12
2018-06-19T14:21:53.355Z,27.93
2018-06-19T14:24:21.289Z,28.12
2018-06-19T14:26:49.367Z,27.75
2018-06-19T14:29:17.442Z,27.56
2018-06-19T14:31:45.373Z,26.71
2018-06-19T14:34:13.343Z,26.68
2018-06-19T14:36:41.291Z,25.69
2018-06-19T14:39:09.346Z,25.08
2018-06-19T14:41:37.245Z,24.72
2018-06-19T14:44:05.240Z,24.55
2018-06-19T14:46:33.280Z,24.27
2018-06-19T14:49:02.292Z,24.12
2018-06-19T14:51:30.210Z,24.02
2018-06-19T14:53:58.129Z,24.01
2018-06-19T14:56:26.116Z,24.13
2018-06-19T14:58:54.164Z,24.14
2018-06-19T15:01:22.092Z,24.05
2018-06-19T15:03:50.075Z,23.95
2018-06-19T15:06:17.999Z,23.86
2018-06-19T15:08:45.918Z,23.66
2018-06-19T15:11:13.918Z,23.84
2018-06-19T15:13:41.831Z,24.00
2018-06-19T15:16:09.758Z,23.93
2018-06-19T15:18:37.706Z,24.24
2018-06-19T15:21:05.627Z,24.54
2018-06-19T15:23:33.558Z,24.67
2018-06-19T15:26:01.514Z,24.55
2018-06-19T15:28:29.578Z,24.93
2018-06-19T15:30:57.491Z,25.21
2018-06-19T15:33:25.548Z,25.19
2018-06-19T15:35:53.466Z,25.42
2018-06-19T15:38:21.712Z,27.77
2018-06-19T15:40:49.697Z,28.46
2018-06-19T15:43:17.677Z,27.99
2018-06-19T15:45:45.604Z,27.18
2018-06-19T15:48:13.701Z,26.72
2018-06-19T15:50:41.659Z,25.89
2018-06-19T15:53:09.620Z,25.85
2018-06-19T15:55:37.731Z,25.54
2018-06-19T15:58:05.835Z,25.39
2018-06-19T16:00:33.979Z,25.14
2018-06-19T16:03:01.952Z,24.88
2018-06-19T16:05:30.199Z,24.86
2018-06-19T16:08:29.043Z,24.87
2018-06-19T16:10:57.216Z,24.80
2018-06-19T16:13:25.577Z,24.38
2018-06-19T16:15:53.733Z,24.49
2018-06-19T16:18:21.723Z,24.47
2018-06-19T16:20:49.703Z,24.52
2018-06-19T16:23:17.777Z,24.40
2018-06-19T16:25:45.711Z,24.09
2018-06-19T16:28:14.090Z,24.21
2018-06-19T16:30:42.318Z,23.69
2018-06-19T16:33:10.292Z,23.78
2018-06-19T16:35:38.229Z,23.96
2018-06-19T16:38:06.844Z,24.03
2018-06-19T16:40:35.803Z,24.00
2018-06-19T16:43:03.901Z,24.18
2018-06-19T16:45:31.921Z,24.10
2018-06-19T16:47:59.857Z,24.25
2018-06-19T16:50:28.161Z,24.38
2018-06-19T16:52:56.421Z,24.45
2018-06-19T16:55:25.325Z,24.33
2018-06-19T16:57:54.154Z,24.11
2018-06-19T17:00:22.191Z,23.80
2018-06-19T17:02:50.111Z,23.83
2018-06-19T17:05:18.136Z,23.66
2018-06-19T17:07:46.192Z,23.46
2018-06-19T17:10:14.527Z,23.30
2018-06-19T17:12:44.442Z,22.92
2018-06-19T17:15:12.645Z,22.84
2018-06-19T17:17:40.656Z,22.84
2018-06-19T17:20:09.053Z,22.55
2018-06-19T17:22:37.536Z,22.51
2018-06-19T17:25:05.846Z,22.34
2018-06-19T17:27:33.862Z,22.38
2018-06-19T17:30:02.128Z,22.27
2018-06-19T17:32:30.127Z,22.18
2018-06-19T17:34:58.343Z,22.14
2018-06-19T17:37:26.450Z,22.06
2018-06-19T17:39:54.599Z,21.89
2018-06-19T17:42:22.618Z,21.65
2018-06-19T17:44:50.713Z,21.61
2018-06-19T17:47:18.734Z,21.63
2018-06-19T17:49:46.916Z,21.44
2018-06-19T17:52:15.119Z,21.52
2018-06-19T17:54:43.196Z,21.46
2018-06-19T17:57:11.144Z,21.34
2018-06-19T17:59:39.403Z,21.36
2018-06-19T18:02:08.405Z,21.30
2018-06-19T18:04:36.417Z,21.13
2018-06-19T18:07:04.768Z,20.92
2018-06-19T18:09:32.897Z,20.75
2018-06-19T18:12:01.103Z,20.71
2018-06-19T18:14:29.435Z,20.59
2018-06-19T18:16:58.057Z,20.43
2018-06-19T18:19:26.851Z,20.17
2018-06-19T18:21:55.559Z,20.18
2018-06-19T18:24:23.672Z,20.27
2018-06-19T18:26:51.720Z,20.30
2018-06-19T18:29:19.879Z,20.21
2018-06-19T18:31:48.165Z,20.23
2018-06-19T18:34:16.506Z,20.17
2018-06-19T18:36:44.527Z,20.10
2018-06-19T18:39:12.900Z,20.08
2018-06-19T18:41:41.220Z,19.99
2018-06-19T18:44:09.804Z,20.06
2018-06-19T18:46:37.939Z,19.95
2018-06-19T18:49:05.842Z,19.89
2018-06-19T18:51:33.871Z,19.78
2018-06-19T18:54:01.844Z,19.60
2018-06-19T18:56:29.752Z,19.59
2018-06-19T18:58:57.840Z,19.57
2018-06-19T19:01:26.218Z,19.54
2018-06-19T19:03:54.218Z,19.38
2018-06-19T19:06:22.222Z,19.34
2018-06-19T19:08:50.171Z,19.27
2018-06-19T19:11:18.129Z,19.12
2018-06-19T19:13:46.688Z,18.82
2018-06-19T19:18:29.677Z,18.83
2018-06-19T19:20:59.021Z,18.91
2018-06-19T19:23:28.114Z,18.75
2018-06-19T19:25:56.396Z,18.67
2018-06-19T19:28:30.191Z,18.55
2018-06-19T19:30:58.551Z,18.69
2018-06-19T19:33:26.760Z,18.49
2018-06-19T19:35:55.300Z,18.51
2018-06-19T19:39:32.790Z,18.42
2018-06-19T19:42:01.062Z,18.32
2018-06-19T19:44:29.609Z,18.21
2018-06-19T19:47:03.138Z,18.08
2018-06-19T19:49:31.222Z,17.88
2018-06-19T19:51:59.592Z,17.86
2018-06-19T19:54:28.071Z,17.83
2018-06-19T19:57:01.510Z,17.85
2018-06-19T19:59:35.753Z,17.90
2018-06-19T20:02:09.678Z,17.79
2018-06-19T20:04:43.945Z,17.78
2018-06-19T20:07:18.170Z,17.72
2018-06-19T20:09:52.219Z,17.42
2018-06-19T20:12:26.786Z,17.03
2018-06-19T20:15:00.874Z,16.89
2018-06-19T20:17:35.734Z,16.74
2018-06-19T20:20:10.865Z,16.53
2018-06-19T20:22:45.094Z,16.70
2018-06-19T20:25:19.624Z,16.65
2018-06-19T20:27:53.998Z,16.74
2018-06-19T20:30:27.995Z,16.93
2018-06-19T20:33:01.955Z,16.81
2018-06-19T20:35:36.078Z,16.72
2018-06-19T20:38:10.259Z,16.79
2018-06-19T20:40:46.165Z,16.86
2018-06-19T20:43:20.304Z,16.94
2018-06-19T20:45:54.275Z,16.90
2018-06-19T20:48:28.228Z,16.84
2018-06-19T20:51:02.392Z,16.82
2018-06-19T20:53:36.296Z,16.30
2018-06-19T20:56:10.428Z,15.78
2018-06-19T20:58:44.840Z,15.88
2018-06-19T21:01:18.948Z,15.96
2018-06-19T21:03:53.772Z,15.73
2018-06-19T21:06:27.863Z,15.94
2018-06-19T21:09:02.021Z,16.10
2018-06-19T21:11:36.184Z,15.98
2018-06-19T21:14:10.225Z,15.98
2018-06-19T21:16:44.330Z,16.09
2018-06-19T21:19:18.236Z,16.19
2018-06-19T21:21:52.216Z,16.25
2018-06-19T21:24:26.251Z,16.23
2018-06-19T21:27:00.435Z,16.45
2018-06-19T21:29:34.482Z,16.41
2018-06-19T21:32:08.645Z,16.50
2018-06-19T21:34:42.661Z,16.44
2018-06-19T21:37:16.693Z,16.46
2018-06-19T21:39:50.932Z,16.55
2018-06-19T21:42:24.917Z,16.60
2018-06-19T21:44:58.810Z,16.57
2018-06-19T21:47:32.919Z,16.42
2018-06-19T21:50:06.839Z,16.42
2018-06-19T21:52:40.883Z,16.49
2018-06-19T21:55:14.833Z,16.64
2018-06-19T21:57:48.856Z,16.29
2018-06-19T22:00:22.879Z,16.24
2018-06-19T22:02:57.012Z,15.93
2018-06-19T22:05:31.051Z,15.77
2018-06-19T22:08:05.116Z,15.62
2018-06-19T22:10:39.232Z,15.35
2018-06-19T22:13:13.392Z,15.35
2018-06-19T22:15:47.419Z,15.27
2018-06-19T22:18:21.266Z,15.64
2018-06-19T22:20:55.351Z,15.72
2018-06-19T22:23:29.363Z,15.90
2018-06-19T22:26:03.373Z,15.97
2018-06-19T22:28:37.422Z,16.02
2018-06-19T22:31:11.504Z,16.10
2018-06-19T22:33:45.481Z,16.07
2018-06-19T22:36:19.613Z,16.13
2018-06-19T22:38:53.713Z,16.17
2018-06-19T22:41:27.841Z,16.12
2018-06-19T22:44:01.849Z,15.99
2018-06-19T22:46:36.663Z,15.96
2018-06-19T22:49:10.739Z,15.93
2018-06-19T22:51:44.698Z,15.91
2018-06-19T22:54:18.918Z,15.93
2018-06-19T22:56:58.160Z,15.77
2018-06-19T22:59:32.232Z,15.73
2018-06-19T23:02:06.188Z,15.75
2018-06-19T23:04:40.246Z,15.63
2018-06-19T23:07:14.206Z,15.57
2018-06-19T23:09:48.180Z,15.42
2018-06-19T23:12:22.131Z,15.54
2018-06-19T23:14:56.256Z,15.38
2018-06-19T23:17:30.356Z,15.25
2018-06-19T23:20:04.504Z,15.08
2018-06-19T23:22:38.592Z,15.26
2018-06-19T23:25:12.652Z,15.10
2018-06-19T23:27:46.727Z,14.73
2018-06-19T23:30:20.883Z,14.50
2018-06-19T23:32:54.955Z,14.36
2018-06-19T23:35:29.024Z,14.29
2018-06-19T23:38:03.038Z,14.44
2018-06-19T23:40:37.042Z,14.63
2018-06-19T23:43:11.120Z,14.68
2018-06-19T23:45:45.146Z,14.62
2018-06-19T23:48:19.278Z,14.68
2018-06-19T23:50:53.303Z,14.68
2018-06-19T23:53:27.270Z,14.65
2018-06-19T23:56:01.261Z,14.74
2018-06-19T23:58:35.224Z,14.76
